createdAt,value
2022-09-14T00:01:23.802Z,94877.95
2022-09-14T00:03:28.156Z,94870.31
2022-09-14T00:05:54.444Z,94871.14
2022-09-14T00:08:20.786Z,94873.72
2022-09-14T00:10:47.123Z,94869.17
2022-09-14T00:13:13.482Z,94882.41
2022-09-14T00:15:41.180Z,94875.13
2022-09-14T00:18:06.201Z,94874.66
2022-09-14T00:20:32.537Z,94873.38
2022-09-14T00:22:58.905Z,94871.77
2022-09-14T00:25:25.237Z,94878.34
2022-09-14T00:27:51.589Z,94880.45
2022-09-14T00:30:17.943Z,94876.11
2022-09-14T00:32:44.285Z,94882.22
2022-09-14T00:35:10.619Z,94865.42
2022-09-14T00:37:36.968Z,94871.06
2022-09-14T00:40:03.367Z,94870.23
2022-09-14T00:42:29.658Z,94866.52
2022-09-14T00:44:56.007Z,94876.38
2022-09-14T00:47:22.358Z,94867.33
2022-09-14T00:49:48.719Z,94878.61
2022-09-14T00:52:15.138Z,94872.50
2022-09-14T00:54:41.470Z,94881.55
2022-09-14T00:57:07.840Z,94880.73
2022-09-14T00:59:34.174Z,94883.31
2022-09-14T01:02:00.606Z,94886.02
2022-09-14T01:04:26.893Z,94879.23
2022-09-14T01:06:53.263Z,94892.35
2022-09-14T01:09:19.599Z,94884.72
2022-09-14T01:11:49.525Z,94890.36
2022-09-14T01:14:12.302Z,94891.18
2022-09-14T01:16:38.684Z,94883.90
2022-09-14T01:19:04.997Z,94885.69
2022-09-14T01:21:31.346Z,94890.04
2022-09-14T01:23:57.689Z,94896.03
2022-09-14T01:26:24.023Z,94888.52
2022-09-14T01:28:50.365Z,94884.98
2022-09-14T01:31:16.780Z,94886.28
2022-09-14T01:33:43.140Z,94884.88
2022-09-14T01:36:09.390Z,94890.16
2022-09-14T01:38:35.732Z,94886.91
2022-09-14T01:41:02.103Z,94884.64
2022-09-14T01:43:28.452Z,94887.73
2022-09-14T01:45:54.825Z,94885.93
2022-09-14T01:48:21.135Z,94882.05
2022-09-14T01:50:47.477Z,94884.31
2022-09-14T01:53:13.853Z,94880.44
2022-09-14T01:55:40.185Z,94885.61
2022-09-14T01:58:06.539Z,94888.31
2022-09-14T02:00:32.926Z,94893.83
2022-09-14T02:02:59.232Z,94890.78
2022-09-14T02:05:25.571Z,94891.72
2022-09-14T02:07:51.933Z,94883.14
2022-09-14T02:10:18.276Z,94889.13
2022-09-14T02:12:44.639Z,94885.41
2022-09-14T02:15:10.980Z,94888.46
2022-09-14T02:17:37.322Z,94890.23
2022-09-14T02:20:03.661Z,94881.19
2022-09-14T02:22:30.022Z,94872.76
2022-09-14T02:24:56.381Z,94890.02
2022-09-14T02:27:22.736Z,94886.14
2022-09-14T02:29:49.076Z,94887.55
2022-09-14T02:32:15.418Z,94880.75
2022-09-14T02:34:41.802Z,94881.57
2022-09-14T02:37:08.178Z,94878.66
2022-09-14T02:39:34.520Z,94877.69
2022-09-14T02:42:00.870Z,94882.19
2022-09-14T02:44:27.213Z,94889.00
2022-09-14T02:46:53.571Z,94881.84
2022-09-14T02:49:19.897Z,94886.53
2022-09-14T02:51:46.249Z,94890.55
2022-09-14T02:54:12.589Z,94891.50
2022-09-14T02:56:38.956Z,94885.51
2022-09-14T02:59:05.299Z,94888.70
2022-09-14T03:01:31.712Z,94887.06
2022-09-14T03:03:57.979Z,94888.70
2022-09-14T03:06:24.327Z,94889.03
2022-09-14T03:08:50.724Z,94879.44
2022-09-14T03:11:17.021Z,94887.19
2022-09-14T03:13:43.394Z,94888.16
2022-09-14T03:16:09.773Z,94894.14
2022-09-14T03:18:36.081Z,94885.22
2022-09-14T03:21:02.425Z,94897.52
2022-09-14T03:23:28.761Z,94892.77
2022-09-14T03:25:55.184Z,94894.41
2022-09-14T03:28:21.525Z,94891.47
2022-09-14T03:30:47.879Z,94893.70
2022-09-14T03:33:14.210Z,94892.06
2022-09-14T03:35:40.561Z,94893.03
2022-09-14T03:38:06.912Z,94900.98
2022-09-14T03:40:33.323Z,94887.87
2022-09-14T03:42:59.665Z,94893.35
2022-09-14T03:45:26.001Z,94894.32
2022-09-14T03:47:52.341Z,94887.98
2022-09-14T03:50:18.687Z,94890.09
2022-09-14T03:52:45.040Z,94889.98
2022-09-14T03:55:11.371Z,94889.63
2022-09-14T03:57:37.720Z,94892.44
2022-09-14T04:00:04.065Z,94894.44
2022-09-14T04:02:30.457Z,94902.07
2022-09-14T04:04:56.781Z,94874.60
2022-09-14T04:07:23.116Z,94894.44
2022-09-14T04:09:49.465Z,94891.50
2022-09-14T04:12:15.804Z,94898.31
2022-09-14T04:14:42.149Z,94902.77
2022-09-14T04:17:08.479Z,94900.89
2022-09-14T04:19:34.832Z,94901.36
2022-09-14T04:22:01.206Z,94900.08
2022-09-14T04:24:30.363Z,94901.84
2022-09-14T04:26:53.880Z,94897.41
2022-09-14T04:29:20.257Z,94897.41
2022-09-14T04:31:46.624Z,94888.83
2022-09-14T04:34:12.953Z,94898.55
2022-09-14T04:36:39.285Z,94888.22
2022-09-14T04:39:05.634Z,94895.61
2022-09-14T04:41:31.984Z,94889.16
2022-09-14T04:43:58.317Z,94894.55
2022-09-14T04:46:24.721Z,94903.59
2022-09-14T04:48:51.003Z,94906.06
2022-09-14T04:51:17.348Z,94909.55
2022-09-14T04:53:43.768Z,94908.53
2022-09-14T04:56:10.098Z,94908.62
2022-09-14T04:58:36.448Z,94912.23
2022-09-14T05:01:02.788Z,94913.84
2022-09-14T05:03:29.191Z,94911.96
2022-09-14T05:05:55.538Z,94911.96
2022-09-14T05:08:21.918Z,94913.78
2022-09-14T05:10:48.301Z,94913.78
2022-09-14T05:13:14.651Z,94921.06
2022-09-14T05:15:41.052Z,94926.58
2022-09-14T05:18:07.361Z,94926.58
2022-09-14T05:20:33.699Z,94935.30
2022-09-14T05:23:00.046Z,94935.17
2022-09-14T05:25:26.394Z,94932.03
2022-09-14T05:27:52.743Z,94937.02
2022-09-14T05:30:19.090Z,94938.23
2022-09-14T05:32:45.431Z,94938.43
2022-09-14T05:35:11.779Z,94940.75
2022-09-14T05:37:38.128Z,94950.77
2022-09-14T05:40:04.517Z,94949.14
2022-09-14T05:42:30.822Z,94951.99
2022-09-14T05:44:57.165Z,94954.20
2022-09-14T05:47:23.524Z,94956.22
2022-09-14T05:49:49.900Z,94949.23
2022-09-14T05:52:16.254Z,94954.67
2022-09-14T05:54:42.627Z,94945.16
2022-09-14T05:57:09.057Z,94954.97
2022-09-14T05:59:35.404Z,94957.78
2022-09-14T06:02:01.847Z,94959.02
2022-09-14T06:04:28.127Z,94960.84
2022-09-14T06:07:17.049Z,94939.61
2022-09-14T06:09:20.891Z,94961.39
2022-09-14T06:11:47.230Z,94967.86
2022-09-14T06:14:13.573Z,94965.39
2022-09-14T06:16:39.913Z,94965.77
2022-09-14T06:19:06.268Z,94963.73
2022-09-14T06:21:32.764Z,94961.98
2022-09-14T06:23:59.099Z,94966.06
2022-09-14T06:26:25.477Z,94960.54
2022-09-14T06:28:51.860Z,94961.91
2022-09-14T06:31:18.242Z,94955.83
2022-09-14T06:33:44.589Z,94957.37
2022-09-14T06:36:10.992Z,94955.02
2022-09-14T06:38:37.335Z,94955.14
2022-09-14T06:41:03.747Z,94949.58
2022-09-14T06:43:30.074Z,94951.34
2022-09-14T06:45:56.507Z,94947.86
2022-09-14T06:48:22.863Z,94944.61
2022-09-14T06:50:49.224Z,94950.71
2022-09-14T06:53:15.565Z,94953.81
2022-09-14T06:55:42.041Z,94949.97
2022-09-14T06:58:08.395Z,94954.13
2022-09-14T07:00:34.772Z,94955.15
2022-09-14T07:03:01.184Z,94956.17
2022-09-14T07:05:27.564Z,94957.69
2022-09-14T07:07:53.920Z,94953.73
2022-09-14T07:10:20.360Z,94956.31
2022-09-14T07:12:46.607Z,94951.27
2022-09-14T07:15:12.960Z,94957.73
2022-09-14T07:17:39.297Z,94951.50
2022-09-14T07:20:06.721Z,94957.47
2022-09-14T07:22:31.990Z,94952.24
2022-09-14T07:24:58.328Z,94946.80
2022-09-14T07:27:24.672Z,94946.64
2022-09-14T07:29:51.191Z,94947.73
2022-09-14T07:32:17.567Z,94940.80
2022-09-14T07:34:43.902Z,94944.20
2022-09-14T07:37:10.233Z,94939.31
2022-09-14T07:39:36.592Z,94938.61
2022-09-14T07:42:02.933Z,94935.36
2022-09-14T07:44:29.284Z,94929.44
2022-09-14T07:46:55.618Z,94928.27
2022-09-14T07:49:21.998Z,94935.27
2022-09-14T07:51:48.339Z,94936.17
2022-09-14T07:54:14.719Z,94935.70
2022-09-14T07:56:41.056Z,94936.02
2022-09-14T08:01:33.938Z,94937.87
2022-09-14T08:04:04.664Z,94917.92
2022-09-14T08:06:26.517Z,94942.08
2022-09-14T08:08:52.873Z,94941.24
2022-09-14T08:11:19.261Z,94941.14
2022-09-14T08:13:45.588Z,94945.41
2022-09-14T08:16:12.195Z,94940.87
2022-09-14T08:18:38.518Z,94937.93
2022-09-14T08:21:04.856Z,94938.94
2022-09-14T08:23:31.278Z,94935.47
2022-09-14T08:25:57.617Z,94933.98
2022-09-14T08:28:23.959Z,94925.92
2022-09-14T08:30:50.302Z,94916.04
2022-09-14T08:33:16.665Z,94918.91
2022-09-14T08:35:57.446Z,94914.28
2022-09-14T08:38:09.427Z,94918.39
2022-09-14T08:40:35.806Z,94919.25
2022-09-14T08:43:02.166Z,94917.55
2022-09-14T08:45:28.565Z,94918.16
2022-09-14T08:47:54.936Z,94916.16
2022-09-14T08:50:21.320Z,94918.43
2022-09-14T08:52:47.698Z,94921.36
2022-09-14T08:55:14.020Z,94922.19
2022-09-14T08:57:40.379Z,94917.70
2022-09-14T09:00:06.709Z,94914.56
2022-09-14T09:02:33.047Z,94913.00
2022-09-14T09:04:59.443Z,94912.67
2022-09-14T09:07:25.750Z,94908.11
2022-09-14T09:09:52.091Z,94907.25
2022-09-14T09:12:18.446Z,94890.84
2022-09-14T09:14:44.785Z,94906.62
2022-09-14T09:17:11.169Z,94900.55
2022-09-14T09:19:37.536Z,94900.44
2022-09-14T09:22:03.850Z,94896.33
2022-09-14T09:24:31.115Z,94889.42
2022-09-14T09:26:56.554Z,94892.88
2022-09-14T09:29:22.907Z,94883.70
2022-09-14T09:31:49.305Z,94891.51
2022-09-14T09:34:15.634Z,94894.92
2022-09-14T09:36:41.977Z,94887.22
2022-09-14T09:39:08.320Z,94888.38
2022-09-14T09:41:34.765Z,94886.86
2022-09-14T09:44:01.097Z,94883.69
2022-09-14T09:46:27.484Z,94883.97
2022-09-14T09:48:53.857Z,94891.09
2022-09-14T09:51:23.954Z,94882.59
2022-09-14T09:53:46.561Z,94890.08
2022-09-14T09:56:12.914Z,94888.04
2022-09-14T09:58:39.259Z,94883.62
2022-09-14T10:01:10.016Z,94874.91
2022-09-14T10:03:31.961Z,94869.83
2022-09-14T10:05:58.319Z,94869.42
2022-09-14T10:08:27.356Z,94865.90
2022-09-14T10:10:53.701Z,94866.95
2022-09-14T10:13:20.109Z,94860.77
2022-09-14T10:15:46.478Z,94858.70
2022-09-14T10:18:12.756Z,94862.77
2022-09-14T10:20:39.106Z,94860.92
2022-09-14T10:23:05.458Z,94854.05
2022-09-14T10:25:31.827Z,94848.39
2022-09-14T10:27:58.181Z,94849.15
2022-09-14T10:30:24.527Z,94846.44
2022-09-14T10:32:50.866Z,94840.44
2022-09-14T10:35:17.209Z,94838.45
2022-09-14T10:37:43.557Z,94833.79
2022-09-14T10:40:09.960Z,94833.48
2022-09-14T10:42:36.243Z,94833.48
2022-09-14T10:45:02.598Z,94835.24
2022-09-14T10:47:28.946Z,94828.77
2022-09-14T10:49:55.361Z,94825.56
2022-09-14T10:52:21.709Z,94830.83
2022-09-14T10:54:48.070Z,94828.58
2022-09-14T10:57:14.408Z,94826.03
2022-09-14T10:59:40.748Z,94820.69
2022-09-14T11:02:07.230Z,94816.97
2022-09-14T11:04:33.472Z,94815.67
2022-09-14T11:06:59.811Z,94818.45
2022-09-14T11:09:26.195Z,94818.86
2022-09-14T11:11:52.542Z,94816.98
2022-09-14T11:14:18.896Z,94815.44
2022-09-14T11:16:45.238Z,94813.13
2022-09-14T11:19:11.613Z,94814.14
2022-09-14T11:21:38.003Z,94815.21
2022-09-14T11:24:04.369Z,94807.45
2022-09-14T11:26:30.714Z,94812.69
2022-09-14T11:28:57.057Z,94810.92
2022-09-14T11:31:23.882Z,94813.64
2022-09-14T11:33:50.208Z,94801.72
2022-09-14T11:36:16.534Z,94799.67
2022-09-14T11:38:42.929Z,94798.34
2022-09-14T11:41:09.281Z,94792.41
2022-09-14T11:43:35.624Z,94789.01
2022-09-14T11:46:02.017Z,94786.07
2022-09-14T11:48:44.006Z,94786.27
2022-09-14T11:50:54.706Z,94778.85
2022-09-14T11:53:21.113Z,94773.99
2022-09-14T11:55:47.521Z,94770.91
2022-09-14T11:58:13.860Z,94769.36
2022-09-14T12:00:40.229Z,94771.06
2022-09-14T12:03:06.647Z,94768.98
2022-09-14T12:05:32.914Z,94773.89
2022-09-14T12:07:59.301Z,94772.88
2022-09-14T12:10:25.650Z,94765.13
2022-09-14T12:12:51.999Z,94766.58
2022-09-14T12:15:18.365Z,94768.88
2022-09-14T12:17:44.716Z,94767.99
2022-09-14T12:20:11.074Z,94765.34
2022-09-14T12:22:37.466Z,94762.63
2022-09-14T12:25:03.825Z,94767.73
2022-09-14T12:27:30.220Z,94756.57
2022-09-14T12:29:56.577Z,94765.22
2022-09-14T12:32:22.944Z,94757.86
2022-09-14T12:34:49.305Z,94759.31
2022-09-14T12:37:15.662Z,94763.31
2022-09-14T12:39:41.994Z,94761.62
2022-09-14T12:42:08.376Z,94752.88
2022-09-14T12:44:34.737Z,94750.52
2022-09-14T12:47:01.079Z,94748.25
2022-09-14T12:49:27.441Z,94749.23
2022-09-14T12:51:53.795Z,94748.95
2022-09-14T12:54:20.203Z,94745.19
2022-09-14T12:56:46.550Z,94746.92
2022-09-14T12:59:12.894Z,94746.93
2022-09-14T13:01:39.336Z,94747.18
2022-09-14T13:04:05.618Z,94747.65
2022-09-14T13:06:31.932Z,94753.77
2022-09-14T13:08:58.283Z,94757.55
2022-09-14T13:11:24.629Z,94755.57
2022-09-14T13:13:51.048Z,94755.16
2022-09-14T13:16:17.368Z,94756.45
2022-09-14T13:18:43.710Z,94757.75
2022-09-14T13:21:10.036Z,94764.72
2022-09-14T13:23:36.394Z,94767.66
2022-09-14T13:26:02.738Z,94770.39
2022-09-14T13:28:29.096Z,94763.93
2022-09-14T13:30:55.534Z,94757.78
2022-09-14T13:33:21.799Z,94756.64
2022-09-14T13:35:48.203Z,94758.19
2022-09-14T13:38:14.540Z,94747.59
2022-09-14T13:40:40.916Z,94750.20
2022-09-14T13:43:07.308Z,94751.78
2022-09-14T13:45:33.693Z,94752.79
2022-09-14T13:47:59.980Z,94749.70
2022-09-14T13:50:26.336Z,94758.31
2022-09-14T13:53:08.078Z,94750.20
2022-09-14T13:55:19.212Z,94756.42
2022-09-14T13:57:45.514Z,94753.14
2022-09-14T14:00:11.856Z,94750.65
2022-09-14T14:02:40.114Z,94751.31
2022-09-14T14:05:04.581Z,94752.61
2022-09-14T14:07:30.932Z,94743.42
2022-09-14T14:09:57.314Z,94741.25
2022-09-14T14:12:23.669Z,94738.00
2022-09-14T14:14:50.006Z,94730.23
2022-09-14T14:17:16.362Z,94730.80
2022-09-14T14:19:42.716Z,94729.07
2022-09-14T14:22:09.063Z,94727.05
2022-09-14T14:24:49.789Z,94720.21
2022-09-14T14:27:01.746Z,94723.11
2022-09-14T14:29:28.150Z,94717.97
2022-09-14T14:31:54.610Z,94728.98
2022-09-14T14:34:20.849Z,94721.00
2022-09-14T14:36:47.208Z,94716.30
2022-09-14T14:39:13.583Z,94722.33
2022-09-14T14:41:39.926Z,94725.95
2022-09-14T14:44:06.299Z,94719.36
2022-09-14T14:46:32.727Z,94720.69
2022-09-14T14:48:58.991Z,94711.76
2022-09-14T14:51:25.367Z,94712.77
2022-09-14T14:53:51.690Z,94715.80
2022-09-14T14:56:18.035Z,94702.70
2022-09-14T14:58:44.384Z,94700.38
2022-09-14T15:01:10.754Z,94707.28
2022-09-14T15:03:37.155Z,94705.30
2022-09-14T15:06:03.445Z,94704.53
2022-09-14T15:08:29.829Z,94698.16
2022-09-14T15:10:56.230Z,94696.40
2022-09-14T15:13:22.559Z,94694.95
2022-09-14T15:15:48.903Z,94687.59
2022-09-14T15:18:15.247Z,94683.23
2022-09-14T15:20:41.599Z,94685.36
2022-09-14T15:23:07.945Z,94685.11
2022-09-14T15:25:34.301Z,94687.00
2022-09-14T15:28:00.649Z,94646.23
2022-09-14T15:30:26.989Z,94682.77
2022-09-14T15:32:54.191Z,94680.72
2022-09-14T15:35:20.526Z,94677.66
2022-09-14T15:37:46.867Z,94681.95
2022-09-14T15:40:13.356Z,94673.18
2022-09-14T15:42:39.654Z,94675.23
2022-09-14T15:45:05.998Z,94673.88
2022-09-14T15:47:36.220Z,94676.47
2022-09-14T15:49:58.828Z,94681.95
2022-09-14T15:52:25.114Z,94677.00
2022-09-14T15:54:51.461Z,94671.87
2022-09-14T15:57:17.797Z,94675.75
2022-09-14T15:59:44.157Z,94673.03
2022-09-14T16:02:10.569Z,94677.52
2022-09-14T16:04:36.844Z,94667.45
2022-09-14T16:07:03.174Z,94665.34
2022-09-14T16:09:29.526Z,94671.14
2022-09-14T16:12:00.923Z,94668.40
2022-09-14T16:14:22.243Z,94673.63
2022-09-14T16:16:48.708Z,94672.56
2022-09-14T16:19:14.996Z,94681.95
2022-09-14T16:21:41.349Z,94676.98
2022-09-14T16:24:07.685Z,94678.42
2022-09-14T16:26:34.025Z,94675.75
2022-09-14T16:29:00.371Z,94683.38
2022-09-14T16:31:26.744Z,94676.69
2022-09-14T16:33:53.095Z,94673.38
2022-09-14T16:36:19.434Z,94670.86
2022-09-14T16:38:45.779Z,94677.32
2022-09-14T16:41:12.184Z,94668.88
2022-09-14T16:43:38.524Z,94671.93
2022-09-14T16:46:04.961Z,94678.08
2022-09-14T16:48:31.223Z,94677.10
2022-09-14T16:50:57.565Z,94677.80
2022-09-14T16:53:23.909Z,94675.50
2022-09-14T16:55:50.249Z,94682.27
2022-09-14T16:58:16.590Z,94677.92
2022-09-14T17:00:44.375Z,94674.05
2022-09-14T17:03:09.327Z,94674.33
2022-09-14T17:05:35.683Z,94681.80
2022-09-14T17:08:02.025Z,94680.51
2022-09-14T17:10:28.360Z,94682.62
2022-09-14T17:12:54.752Z,94676.44
2022-09-14T17:15:21.088Z,94682.49
2022-09-14T17:17:47.443Z,94684.07
2022-09-14T17:20:13.776Z,94683.09
2022-09-14T17:22:40.116Z,94681.39
2022-09-14T17:25:06.483Z,94686.38
2022-09-14T17:27:32.900Z,94681.86
2022-09-14T17:29:59.228Z,94684.92
2022-09-14T17:32:25.573Z,94683.98
2022-09-14T17:34:51.952Z,94689.49
2022-09-14T17:37:18.303Z,94694.06
2022-09-14T17:39:44.686Z,94687.38
2022-09-14T17:42:11.002Z,94687.13
2022-09-14T17:44:37.372Z,94690.79
2022-09-14T17:47:03.774Z,94696.78
2022-09-14T17:49:30.078Z,94704.06
2022-09-14T17:51:56.423Z,94699.02
2022-09-14T17:54:22.771Z,94702.07
2022-09-14T17:56:49.127Z,94714.18
2022-09-14T17:59:15.468Z,94712.41
2022-09-14T18:01:41.824Z,94705.89
2022-09-14T18:04:08.163Z,94705.13
2022-09-14T18:06:34.520Z,94710.11
2022-09-14T18:09:00.861Z,94718.22
2022-09-14T18:11:27.223Z,94716.42
2022-09-14T18:13:53.590Z,94714.53
2022-09-14T18:16:19.960Z,94718.63
2022-09-14T18:18:46.273Z,94715.22
2022-09-14T18:21:12.626Z,94724.15
2022-09-14T18:23:38.981Z,94724.97
2022-09-14T18:26:05.332Z,94731.91
2022-09-14T18:28:31.675Z,94733.52
2022-09-14T18:30:58.079Z,94733.04
2022-09-14T18:35:59.629Z,94726.45
2022-09-14T18:38:25.977Z,94727.75
2022-09-14T18:40:52.320Z,94735.81
2022-09-14T18:43:18.656Z,94740.98
2022-09-14T18:45:45.006Z,94740.05
2022-09-14T18:48:11.336Z,94736.64
2022-09-14T18:50:37.679Z,94739.57
2022-09-14T18:53:04.056Z,94736.98
2022-09-14T18:55:30.392Z,94742.98
2022-09-14T18:57:56.828Z,94738.12
2022-09-14T19:00:23.201Z,94727.78
2022-09-14T19:02:49.545Z,94734.75
2022-09-14T19:05:15.877Z,94731.66
2022-09-14T19:07:42.268Z,94734.59
2022-09-14T19:10:11.516Z,94736.36
2022-09-14T19:12:34.944Z,94739.76
2022-09-14T19:15:01.287Z,94737.65
2022-09-14T19:17:27.630Z,94742.70
2022-09-14T19:19:53.964Z,94739.76
2022-09-14T19:22:20.313Z,94750.45
2022-09-14T19:24:46.647Z,94766.31
2022-09-14T19:27:13.002Z,94764.20
2022-09-14T19:29:39.373Z,94762.44
2022-09-14T19:32:05.720Z,94768.91
2022-09-14T19:34:32.062Z,94779.56
2022-09-14T19:36:58.455Z,94767.61
2022-09-14T19:39:24.798Z,94778.74
2022-09-14T19:41:53.332Z,94775.49
2022-09-14T19:44:19.661Z,94773.25
2022-09-14T19:46:46.080Z,94786.19
2022-09-14T19:49:12.350Z,94797.67
2022-09-14T19:51:38.725Z,94789.59
2022-09-14T19:54:05.058Z,94783.98
2022-09-14T19:56:31.409Z,94796.38
2022-09-14T19:58:57.737Z,94798.02
2022-09-14T20:01:25.318Z,94794.95
2022-09-14T20:03:51.590Z,94804.33
2022-09-14T20:06:17.886Z,94808.83
2022-09-14T20:08:44.259Z,94806.12
2022-09-14T20:11:10.598Z,94813.25
2022-09-14T20:13:38.209Z,94813.59
2022-09-14T20:16:03.407Z,94816.19
2022-09-14T20:18:29.671Z,94827.67
2022-09-14T20:20:56.015Z,94839.78
2022-09-14T20:23:22.424Z,94847.22
2022-09-14T20:25:48.803Z,94850.28
2022-09-14T20:28:15.105Z,94849.46
2022-09-14T20:30:41.574Z,94852.98
2022-09-14T20:33:07.822Z,94854.63
2022-09-14T20:35:34.164Z,94852.05
2022-09-14T20:38:00.510Z,94847.22
2022-09-14T20:40:26.924Z,94851.03
2022-09-14T20:42:53.213Z,94842.33
2022-09-14T20:45:19.560Z,94835.91
2022-09-14T20:47:45.939Z,94835.86
2022-09-14T20:50:12.287Z,94828.03
2022-09-14T20:52:38.622Z,94826.46
2022-09-14T20:55:04.966Z,94824.00
2022-09-14T20:57:31.324Z,94816.52
2022-09-14T20:59:57.671Z,94813.94
2022-09-14T21:02:24.032Z,94825.25
2022-09-14T21:04:50.360Z,94833.05
2022-09-14T21:07:16.702Z,94820.87
2022-09-14T21:09:43.045Z,94827.96
2022-09-14T21:12:09.376Z,94826.67
2022-09-14T21:14:35.719Z,94814.56
2022-09-14T21:17:02.054Z,94800.62
2022-09-14T21:19:28.413Z,94798.03
2022-09-14T21:21:54.753Z,94792.70
2022-09-14T21:24:21.127Z,94801.09
2022-09-14T21:26:47.508Z,94796.39
2022-09-14T21:29:13.899Z,94801.91
2022-09-14T21:31:40.317Z,94801.09
2022-09-14T21:34:06.578Z,94795.09
2022-09-14T21:36:33.321Z,94801.56
2022-09-14T21:38:59.714Z,94803.33
2022-09-14T21:41:26.074Z,94794.28
2022-09-14T21:43:52.408Z,94786.39
2022-09-14T21:46:18.801Z,94783.81
2022-09-14T21:48:45.124Z,94782.32
2022-09-14T21:51:11.472Z,94786.20
2022-09-14T21:53:37.807Z,94790.08
2022-09-14T21:56:04.154Z,94790.75
2022-09-14T21:58:30.483Z,94787.34
2022-09-14T22:00:58.989Z,94777.47
2022-09-14T22:03:25.359Z,94780.21
2022-09-14T22:05:56.414Z,94778.56
2022-09-14T22:08:18.072Z,94781.98
2022-09-14T22:10:44.415Z,94782.80
2022-09-14T22:13:10.751Z,94782.92
2022-09-14T22:15:37.138Z,94776.33
2022-09-14T22:18:03.432Z,94782.64
2022-09-14T22:20:29.776Z,94783.46
2022-09-14T22:22:56.145Z,94783.46
2022-09-14T22:25:22.449Z,94783.46
2022-09-14T22:27:48.786Z,94793.33
2022-09-14T22:30:15.152Z,94795.57
2022-09-14T22:32:41.487Z,94795.25
2022-09-14T22:35:07.832Z,94803.33
2022-09-14T22:37:34.174Z,94804.30
2022-09-14T22:40:00.546Z,94803.61
2022-09-14T22:42:26.853Z,94814.06
2022-09-14T22:44:53.206Z,94818.99
2022-09-14T22:47:19.539Z,94833.34
2022-09-14T22:49:45.886Z,94841.44
2022-09-14T22:52:12.217Z,94836.87
2022-09-14T22:54:38.556Z,94838.63
2022-09-14T22:57:04.950Z,94829.03
2022-09-14T22:59:31.334Z,94836.80
2022-09-14T23:01:57.750Z,94839.97
2022-09-14T23:04:24.011Z,94834.80
2022-09-14T23:06:50.357Z,94829.62
2022-09-14T23:09:16.703Z,94831.97
2022-09-14T23:11:43.046Z,94822.70
2022-09-14T23:14:09.385Z,94821.41
2022-09-14T23:16:37.708Z,94824.81
2022-09-14T23:19:02.104Z,94817.05
2022-09-14T23:21:29.390Z,94824.69
2022-09-14T23:23:54.824Z,94825.16
2022-09-14T23:26:21.159Z,94816.23
2022-09-14T23:28:47.546Z,94818.70
2022-09-14T23:31:13.885Z,94817.20
2022-09-14T23:33:40.219Z,94811.53
2022-09-14T23:36:06.561Z,94807.66
2022-09-14T23:38:32.899Z,94803.78
2022-09-14T23:40:59.250Z,94801.34
2022-09-14T23:43:25.593Z,94803.93
2022-09-14T23:45:51.956Z,94805.58
2022-09-14T23:48:18.264Z,94802.16
2022-09-14T23:50:44.614Z,94802.16
2022-09-14T23:53:10.951Z,94800.88
2022-09-14T23:55:37.291Z,94799.58
2022-09-14T23:58:03.630Z,94793.59
